createdAt,value
2017-12-02T00:01:48.858Z,57.60
2017-12-02T00:04:16.415Z,51.58
2017-12-02T00:06:43.972Z,58.85
2017-12-02T00:09:11.556Z,57.80
2017-12-02T00:11:39.117Z,57.85
2017-12-02T00:14:06.700Z,66.32
2017-12-02T00:16:34.247Z,65.57
2017-12-02T00:19:01.820Z,54.60
2017-12-02T00:21:29.375Z,63.00
2017-12-02T00:23:56.924Z,71.15
2017-12-02T00:26:24.504Z,72.82
2017-12-02T00:28:52.087Z,68.22
2017-12-02T00:31:20.415Z,61.33
2017-12-02T00:33:47.977Z,65.37
2017-12-02T00:36:15.534Z,62.47
2017-12-02T00:38:43.110Z,71.65
2017-12-02T00:41:10.669Z,79.53
2017-12-02T00:43:38.227Z,69.95
2017-12-02T00:46:05.787Z,74.47
2017-12-02T00:48:33.353Z,68.40
2017-12-02T00:51:00.939Z,78.43
2017-12-02T00:53:28.495Z,73.97
2017-12-02T00:55:56.038Z,68.93
2017-12-02T00:58:23.589Z,78.28
2017-12-02T01:00:51.175Z,75.82
2017-12-02T01:03:18.789Z,67.62
2017-12-02T01:05:46.349Z,71.00
2017-12-02T01:08:13.895Z,69.18
2017-12-02T01:10:41.454Z,64.32
2017-12-02T01:13:09.002Z,63.00
2017-12-02T01:15:36.572Z,67.15
2017-12-02T01:18:04.144Z,69.43
2017-12-02T01:20:31.692Z,69.60
2017-12-02T01:22:59.233Z,66.68
2017-12-02T01:25:27.547Z,66.55
2017-12-02T01:27:55.114Z,64.62
2017-12-02T01:30:22.666Z,65.80
2017-12-02T01:32:50.258Z,65.00
2017-12-02T01:35:17.813Z,71.20
2017-12-02T01:37:45.376Z,66.95
2017-12-02T01:40:12.967Z,72.30
2017-12-02T01:42:41.279Z,71.40
2017-12-02T01:45:08.829Z,65.68
2017-12-02T01:47:36.388Z,71.15
2017-12-02T01:50:03.935Z,73.35
2017-12-02T01:52:31.520Z,65.87
2017-12-02T01:54:59.849Z,70.87
2017-12-02T01:57:27.419Z,69.53
2017-12-02T01:59:55.733Z,67.75
2017-12-02T02:02:23.282Z,67.95
2017-12-02T02:04:50.866Z,64.75
2017-12-02T02:07:18.425Z,68.03
2017-12-02T02:09:45.980Z,65.43
2017-12-02T02:12:13.535Z,59.33
2017-12-02T02:14:41.075Z,58.05
2017-12-02T02:17:08.652Z,57.53
2017-12-02T02:19:36.205Z,61.85
2017-12-02T02:22:03.747Z,57.35
2017-12-02T02:24:32.091Z,58.85
2017-12-02T02:26:59.649Z,65.32
2017-12-02T02:29:27.225Z,64.70
2017-12-02T02:31:54.772Z,67.05
2017-12-02T02:34:22.323Z,68.85
2017-12-02T02:36:49.904Z,72.43
2017-12-02T02:39:17.454Z,73.45
2017-12-02T02:41:45.023Z,73.32
2017-12-02T02:44:12.575Z,66.05
2017-12-02T02:46:40.152Z,80.28
2017-12-02T02:49:07.699Z,89.97
2017-12-02T02:51:35.274Z,110.65
2017-12-02T02:54:03.615Z,81.03
2017-12-02T02:56:31.164Z,106.82
2017-12-02T02:58:58.745Z,80.12
2017-12-02T03:01:26.290Z,79.75
2017-12-02T03:03:54.639Z,96.00
2017-12-02T03:06:22.195Z,89.03
2017-12-02T03:08:49.746Z,123.13
2017-12-02T03:11:18.092Z,87.45
2017-12-02T03:13:45.644Z,103.53
2017-12-02T03:16:13.214Z,142.10
2017-12-02T03:18:40.796Z,160.68
2017-12-02T03:21:09.128Z,157.15
2017-12-02T03:23:36.716Z,213.02
2017-12-02T03:26:04.282Z,296.20
2017-12-02T03:28:31.896Z,219.40
2017-12-02T03:30:59.457Z,181.45
2017-12-02T03:33:27.016Z,205.57
2017-12-02T03:35:54.583Z,258.50
2017-12-02T03:38:22.153Z,232.73
2017-12-02T03:40:49.756Z,234.68
2017-12-02T03:43:18.071Z,202.05
2017-12-02T03:45:45.637Z,107.22
2017-12-02T03:48:13.210Z,140.48
2017-12-02T03:50:40.783Z,141.73
2017-12-02T03:53:08.369Z,203.68
2017-12-02T03:55:35.937Z,190.50
2017-12-02T03:58:04.293Z,107.37
2017-12-02T04:00:31.879Z,179.95
2017-12-02T04:02:59.452Z,201.23
2017-12-02T04:05:27.035Z,206.60
2017-12-02T04:07:54.604Z,304.73
2017-12-02T04:10:22.987Z,246.27
2017-12-02T04:12:50.562Z,395.63
2017-12-02T04:15:18.128Z,234.02
2017-12-02T04:17:45.702Z,373.38
2017-12-02T04:20:13.259Z,240.93
2017-12-02T04:22:40.842Z,264.23
2017-12-02T04:25:08.384Z,277.10
2017-12-02T04:27:35.975Z,276.88
2017-12-02T04:30:04.389Z,226.90
2017-12-02T04:32:31.994Z,183.48
2017-12-02T04:34:59.559Z,443.85
2017-12-02T04:37:27.122Z,191.60
2017-12-02T04:39:55.513Z,204.07
2017-12-02T04:42:23.888Z,165.50
2017-12-02T04:44:52.236Z,145.45
2017-12-02T04:47:19.794Z,254.55
2017-12-02T04:49:47.402Z,230.68
2017-12-02T04:52:14.988Z,408.10
2017-12-02T04:54:43.328Z,378.65
2017-12-02T04:57:11.681Z,251.93
2017-12-02T04:59:39.287Z,464.67
2017-12-02T05:02:06.838Z,325.23
2017-12-02T05:04:34.472Z,285.05
2017-12-02T05:07:02.048Z,120.72
2017-12-02T05:09:30.447Z,231.13
2017-12-02T05:11:58.020Z,217.77
2017-12-02T05:14:25.609Z,158.80
2017-12-02T05:16:53.178Z,189.02
2017-12-02T05:19:20.749Z,127.50
2017-12-02T05:21:48.338Z,255.55
2017-12-02T05:24:15.930Z,211.52
2017-12-02T05:26:43.515Z,142.25
2017-12-02T05:29:11.103Z,240.68
2017-12-02T05:31:39.434Z,74.93
2017-12-02T05:34:07.019Z,290.30
2017-12-02T05:36:34.610Z,167.95
2017-12-02T05:39:02.938Z,75.05
2017-12-02T05:41:30.511Z,132.45
2017-12-02T05:43:58.072Z,113.43
2017-12-02T05:46:25.669Z,74.85
2017-12-02T05:48:54.008Z,134.37
2017-12-02T05:51:21.610Z,74.15
2017-12-02T05:53:49.938Z,73.47
2017-12-02T05:56:17.493Z,65.85
2017-12-02T05:58:45.060Z,59.35
2017-12-02T06:01:12.597Z,64.32
2017-12-02T06:03:40.211Z,60.72
2017-12-02T06:06:07.795Z,57.33
2017-12-02T06:08:36.167Z,60.03
2017-12-02T06:11:03.750Z,63.47
2017-12-02T06:13:31.322Z,62.50
2017-12-02T06:15:58.893Z,57.70
2017-12-02T06:18:26.475Z,59.85
2017-12-02T06:20:54.070Z,59.28
2017-12-02T06:23:22.427Z,62.13
2017-12-02T06:25:49.991Z,57.70
2017-12-02T06:28:17.552Z,60.45
2017-12-02T06:30:45.146Z,61.63
2017-12-02T06:33:12.719Z,62.78
2017-12-02T06:35:40.262Z,62.22
2017-12-02T06:38:07.863Z,59.22
2017-12-02T06:40:35.434Z,54.90
2017-12-02T06:43:02.996Z,65.32
2017-12-02T06:45:30.579Z,59.90
2017-12-02T06:48:08.411Z,63.28
2017-12-02T06:50:35.954Z,57.83
2017-12-02T06:53:04.282Z,62.45
2017-12-02T06:55:31.855Z,53.75
2017-12-02T06:57:59.414Z,55.63
2017-12-02T07:00:26.990Z,48.53
2017-12-02T07:02:54.558Z,48.87
2017-12-02T07:05:22.122Z,44.05
2017-12-02T07:07:49.707Z,44.70
2017-12-02T07:10:17.260Z,48.00
2017-12-02T07:15:42.338Z,47.95
2017-12-02T07:18:09.921Z,44.53
2017-12-02T07:23:30.149Z,58.47
2017-12-02T07:25:58.511Z,47.05
2017-12-02T07:28:26.065Z,45.00
2017-12-02T07:30:53.616Z,47.33
2017-12-02T07:33:22.166Z,49.17
2017-12-02T07:35:49.723Z,49.50
2017-12-02T07:38:17.278Z,50.65
2017-12-02T07:40:45.601Z,46.65
2017-12-02T07:43:13.164Z,47.55
2017-12-02T07:45:40.735Z,50.05
2017-12-02T07:48:18.446Z,43.92
2017-12-02T07:50:46.810Z,47.90
2017-12-02T07:53:14.381Z,42.25
2017-12-02T07:55:42.722Z,51.25
2017-12-02T07:58:10.282Z,44.40
2017-12-02T08:00:37.868Z,41.45
2017-12-02T08:03:05.451Z,43.92
2017-12-02T08:05:33.783Z,40.37
2017-12-02T08:08:01.388Z,42.58
2017-12-02T08:10:28.982Z,41.90
2017-12-02T08:12:56.567Z,37.90
2017-12-02T08:15:24.154Z,40.80
2017-12-02T08:17:51.736Z,42.47
2017-12-02T08:20:19.324Z,36.90
2017-12-02T08:22:46.890Z,39.30
2017-12-02T08:25:14.498Z,38.13
2017-12-02T08:27:42.062Z,38.63
2017-12-02T08:30:10.400Z,40.50
2017-12-02T08:32:37.955Z,43.33
2017-12-02T08:35:05.516Z,45.58
2017-12-02T08:37:33.126Z,42.97
2017-12-02T08:40:01.471Z,39.30
2017-12-02T08:42:29.060Z,35.88
2017-12-02T08:44:57.393Z,37.25
2017-12-02T08:47:24.994Z,39.87
2017-12-02T08:49:52.578Z,37.80
2017-12-02T08:52:20.135Z,36.85
2017-12-02T08:54:47.699Z,36.10
2017-12-02T08:57:15.262Z,36.30
2017-12-02T08:59:42.859Z,33.88
2017-12-02T09:02:10.474Z,37.93
2017-12-02T09:04:38.285Z,40.83
2017-12-02T09:07:05.837Z,33.57
2017-12-02T09:09:33.462Z,34.17
2017-12-02T09:12:01.807Z,35.73
2017-12-02T09:14:29.428Z,37.10
2017-12-02T09:16:56.970Z,31.93
2017-12-02T09:19:25.335Z,35.00
2017-12-02T09:21:53.663Z,38.27
2017-12-02T09:24:21.241Z,35.10
2017-12-02T09:26:48.790Z,39.30
2017-12-02T09:29:16.347Z,37.40
2017-12-02T09:31:43.961Z,35.10
2017-12-02T09:34:11.519Z,37.93
2017-12-02T09:36:39.857Z,33.80
2017-12-02T09:39:07.409Z,34.77
2017-12-02T09:41:36.029Z,33.87
2017-12-02T09:47:11.499Z,43.93
2017-12-02T09:49:39.894Z,40.57
2017-12-02T09:52:08.235Z,42.83
2017-12-02T09:54:35.882Z,46.30
2017-12-02T09:57:03.460Z,49.80
2017-12-02T09:59:31.030Z,44.07
2017-12-02T10:04:53.273Z,47.77
2017-12-02T10:07:20.831Z,44.00
2017-12-02T10:09:48.370Z,43.90
2017-12-02T10:12:15.929Z,50.43
2017-12-02T10:14:43.491Z,50.37
2017-12-02T10:17:11.106Z,46.77
2017-12-02T10:19:39.450Z,40.90
2017-12-02T10:22:07.035Z,34.87
2017-12-02T10:24:40.794Z,36.10
2017-12-02T10:27:08.346Z,40.87
2017-12-02T10:29:35.918Z,36.40
2017-12-02T10:32:03.471Z,41.47
2017-12-02T10:34:31.057Z,38.60
2017-12-02T10:36:58.626Z,41.30
2017-12-02T10:39:26.186Z,41.67
2017-12-02T10:41:53.813Z,44.70
2017-12-02T10:44:21.377Z,44.03
2017-12-02T10:46:48.918Z,40.80
2017-12-02T10:49:16.478Z,36.67
2017-12-02T10:51:44.054Z,38.57
2017-12-02T10:54:11.648Z,43.50
2017-12-02T10:56:39.219Z,41.83
2017-12-02T10:59:06.775Z,40.90
2017-12-02T11:01:34.375Z,36.83
2017-12-02T11:04:01.922Z,36.90
2017-12-02T11:06:31.878Z,40.03
2017-12-02T11:08:59.414Z,37.23
2017-12-02T11:11:27.280Z,42.00
2017-12-02T11:13:54.840Z,36.10
2017-12-02T11:16:22.436Z,32.30
2017-12-02T11:18:50.010Z,31.70
2017-12-02T11:21:17.575Z,37.47
2017-12-02T11:23:45.182Z,39.07
2017-12-02T11:26:13.683Z,38.40
2017-12-02T11:28:41.234Z,39.23
2017-12-02T11:31:08.804Z,33.87
2017-12-02T11:33:36.364Z,30.63
2017-12-02T11:36:03.944Z,32.00
2017-12-02T11:38:36.405Z,29.47
2017-12-02T11:41:03.974Z,30.73
2017-12-02T11:43:31.551Z,31.00
2017-12-02T11:45:59.107Z,37.67
2017-12-02T11:48:26.696Z,31.40
2017-12-02T11:50:54.819Z,36.50
2017-12-02T11:53:22.392Z,37.20
2017-12-02T11:55:50.179Z,32.50
2017-12-02T11:58:17.742Z,31.10
2017-12-02T12:00:47.334Z,32.97
2017-12-02T12:03:14.878Z,36.57
2017-12-02T12:05:42.443Z,42.63
2017-12-02T12:08:10.004Z,39.27
2017-12-02T12:10:37.553Z,36.00
2017-12-02T12:13:05.886Z,35.80
2017-12-02T12:15:34.224Z,48.60
2017-12-02T12:18:01.795Z,37.33
2017-12-02T12:20:29.343Z,36.47
2017-12-02T12:22:56.887Z,39.90
2017-12-02T12:25:36.827Z,36.87
2017-12-02T12:28:04.354Z,35.30
2017-12-02T12:30:31.899Z,31.20
2017-12-02T12:32:59.451Z,43.97
2017-12-02T12:35:27.812Z,49.77
2017-12-02T12:37:55.371Z,72.43
2017-12-02T12:40:22.940Z,41.10
2017-12-02T12:42:50.496Z,35.50
2017-12-02T12:45:18.044Z,44.27
2017-12-02T12:47:45.590Z,50.37
2017-12-02T12:50:13.932Z,38.57
2017-12-02T12:52:42.242Z,33.03
2017-12-02T12:55:09.789Z,27.27
2017-12-02T12:57:38.116Z,26.43
2017-12-02T13:00:05.671Z,47.77
2017-12-02T13:02:33.278Z,26.70
2017-12-02T13:05:00.824Z,35.27
2017-12-02T13:07:28.371Z,22.00
2017-12-02T13:09:55.935Z,27.30
2017-12-02T13:12:23.478Z,24.87
2017-12-02T13:14:51.035Z,31.30
2017-12-02T13:17:18.578Z,29.30
2017-12-02T13:19:46.763Z,29.77
2017-12-02T13:22:14.280Z,29.10
2017-12-02T13:24:42.590Z,40.13
2017-12-02T13:27:10.140Z,103.93
2017-12-02T13:29:37.686Z,103.37
2017-12-02T13:32:05.261Z,37.60
2017-12-02T13:34:37.222Z,24.80
2017-12-02T13:37:04.797Z,26.00
2017-12-02T13:39:32.360Z,28.23
2017-12-02T13:42:00.675Z,26.67
2017-12-02T13:44:28.245Z,25.77
2017-12-02T13:46:55.813Z,33.07
2017-12-02T13:49:24.150Z,30.13
2017-12-02T13:51:51.706Z,31.80
2017-12-02T13:54:19.253Z,30.20
2017-12-02T13:56:46.790Z,30.10
2017-12-02T13:59:14.341Z,31.80
2017-12-02T14:01:41.911Z,28.63
2017-12-02T14:04:09.470Z,31.00
2017-12-02T14:06:37.014Z,27.70
2017-12-02T14:09:12.664Z,32.80
2017-12-02T14:11:40.969Z,41.87
2017-12-02T14:14:08.539Z,33.10
2017-12-02T14:16:36.087Z,39.43
2017-12-02T14:19:03.670Z,31.63
2017-12-02T14:21:31.275Z,35.80
2017-12-02T14:23:59.586Z,73.73
2017-12-02T14:26:27.113Z,41.57
2017-12-02T14:28:55.442Z,38.47
2017-12-02T14:31:23.015Z,37.10
2017-12-02T14:33:50.559Z,37.57
2017-12-02T14:36:18.136Z,41.90
2017-12-02T14:38:45.688Z,42.70
2017-12-02T14:41:13.256Z,40.63
2017-12-02T14:43:40.803Z,37.33
2017-12-02T14:46:08.355Z,37.70
2017-12-02T14:48:35.922Z,44.67
2017-12-02T14:51:03.534Z,39.83
2017-12-02T14:53:31.850Z,37.50
2017-12-02T14:55:59.433Z,48.80
2017-12-02T14:58:26.975Z,40.23
2017-12-02T15:00:56.438Z,43.80
2017-12-02T15:03:24.775Z,48.60
2017-12-02T15:05:52.343Z,41.37
2017-12-02T15:11:13.366Z,43.47
2017-12-02T15:13:57.525Z,46.20
2017-12-02T15:16:25.086Z,37.47
2017-12-02T15:18:52.698Z,44.47
2017-12-02T15:21:20.241Z,44.40
2017-12-02T15:23:48.543Z,41.90
2017-12-02T15:26:16.076Z,51.67
2017-12-02T15:28:44.410Z,39.65
2017-12-02T15:31:21.842Z,39.43
2017-12-02T15:36:43.502Z,41.83
2017-12-02T15:39:11.941Z,43.23
2017-12-02T15:41:41.305Z,45.67
2017-12-02T15:44:08.871Z,47.80
2017-12-02T15:46:36.415Z,43.90
2017-12-02T15:49:06.999Z,45.63
2017-12-02T15:51:34.567Z,41.83
2017-12-02T15:54:09.078Z,37.23
2017-12-02T15:56:36.646Z,50.87
2017-12-02T15:59:04.193Z,36.90
2017-12-02T16:01:31.768Z,38.10
2017-12-02T16:03:59.322Z,49.73
2017-12-02T16:06:32.702Z,46.87
2017-12-02T16:09:08.127Z,32.47
2017-12-02T16:11:42.010Z,36.60
2017-12-02T16:14:10.531Z,30.57
2017-12-02T16:16:45.349Z,35.30
2017-12-02T16:19:13.715Z,30.60
2017-12-02T16:21:42.201Z,39.25
2017-12-02T16:24:09.796Z,57.63
2017-12-02T16:26:37.369Z,37.92
2017-12-02T16:29:04.938Z,39.40
2017-12-02T16:31:34.303Z,49.90
2017-12-02T16:34:09.126Z,56.40
2017-12-02T16:36:36.724Z,71.70
2017-12-02T16:39:04.287Z,39.53
2017-12-02T16:41:36.067Z,37.27
2017-12-02T16:44:04.404Z,36.60
2017-12-02T16:46:32.014Z,39.90
2017-12-02T16:48:59.562Z,50.15
2017-12-02T16:51:27.876Z,42.93
2017-12-02T16:53:55.457Z,57.25
2017-12-02T16:56:23.007Z,50.03
2017-12-02T16:58:50.566Z,33.80
2017-12-02T17:01:18.142Z,37.40
2017-12-02T17:03:45.698Z,40.50
2017-12-02T17:06:13.251Z,39.37
2017-12-02T17:08:40.792Z,36.17
2017-12-02T17:11:08.358Z,36.30
2017-12-02T17:13:35.926Z,40.80
2017-12-02T17:16:03.548Z,34.22
2017-12-02T17:18:31.872Z,35.13
2017-12-02T17:20:59.422Z,44.13
2017-12-02T17:23:26.972Z,38.93
2017-12-02T17:25:54.577Z,39.17
2017-12-02T17:28:22.179Z,40.40
2017-12-02T17:30:49.722Z,93.93
2017-12-02T17:33:17.295Z,110.32
2017-12-02T17:35:44.870Z,58.33
2017-12-02T17:38:12.429Z,102.85
2017-12-02T17:40:39.978Z,99.05
2017-12-02T17:43:07.607Z,93.82
2017-12-02T17:45:35.200Z,42.50
2017-12-02T17:48:02.754Z,64.97
2017-12-02T17:50:30.321Z,76.10
2017-12-02T17:52:57.922Z,77.20
2017-12-02T17:55:25.473Z,51.80
2017-12-02T17:57:53.824Z,50.20
2017-12-02T18:00:21.386Z,61.30
2017-12-02T18:02:48.958Z,69.37
2017-12-02T18:05:16.537Z,41.50
2017-12-02T18:07:44.099Z,75.73
2017-12-02T18:10:11.662Z,57.62
2017-12-02T18:12:39.257Z,89.40
2017-12-02T18:15:06.851Z,38.65
2017-12-02T18:17:34.426Z,32.50
2017-12-02T18:20:01.975Z,51.93
2017-12-02T18:22:29.523Z,41.22
2017-12-02T18:24:57.116Z,30.00
2017-12-02T18:27:24.683Z,46.27
2017-12-02T18:29:52.254Z,80.87
2017-12-02T18:32:19.856Z,34.50
2017-12-02T18:34:48.170Z,69.33
2017-12-02T18:37:15.726Z,72.30
2017-12-02T18:39:43.291Z,36.70
2017-12-02T18:42:10.866Z,40.07
2017-12-02T18:44:38.402Z,44.17
2017-12-02T18:47:05.977Z,28.52
2017-12-02T18:49:33.555Z,32.88
2017-12-02T18:52:01.112Z,44.57
2017-12-02T18:54:28.670Z,31.92
2017-12-02T18:56:56.236Z,105.00
2017-12-02T18:59:23.803Z,29.80
2017-12-02T19:01:51.389Z,36.67
2017-12-02T19:04:19.729Z,39.38
2017-12-02T19:06:47.310Z,39.05
2017-12-02T19:09:15.662Z,36.75
2017-12-02T19:11:43.234Z,31.40
2017-12-02T19:14:10.831Z,36.88
2017-12-02T19:16:39.157Z,84.63
2017-12-02T19:19:06.746Z,38.15
2017-12-02T19:21:34.323Z,35.85
2017-12-02T19:24:01.899Z,34.83
2017-12-02T19:26:29.482Z,39.00
2017-12-02T19:28:57.036Z,39.73
2017-12-02T19:31:24.598Z,39.63
2017-12-02T19:33:52.173Z,41.35
2017-12-02T19:36:19.722Z,65.70
2017-12-02T19:38:47.312Z,92.05
2017-12-02T19:41:14.883Z,255.93
2017-12-02T19:43:42.471Z,159.32
2017-12-02T19:46:10.798Z,60.00
2017-12-02T19:48:38.381Z,343.35
2017-12-02T19:51:05.975Z,50.03
2017-12-02T19:53:34.297Z,62.75
2017-12-02T19:56:01.871Z,51.28
2017-12-02T19:58:29.431Z,36.50
2017-12-02T20:00:57.004Z,43.38
2017-12-02T20:03:24.586Z,40.25
2017-12-02T20:05:52.919Z,40.85
2017-12-02T20:08:20.497Z,31.58
2017-12-02T20:10:48.053Z,29.35
2017-12-02T20:13:15.626Z,46.60
2017-12-02T20:15:43.256Z,47.17
2017-12-02T20:18:10.809Z,31.20
2017-12-02T20:20:38.379Z,33.78
2017-12-02T20:23:16.032Z,37.30
2017-12-02T20:25:44.368Z,37.30
2017-12-02T20:28:11.957Z,30.73
2017-12-02T20:30:39.507Z,56.13
2017-12-02T20:33:25.608Z,35.80
2017-12-02T20:35:53.156Z,35.05
2017-12-02T20:38:20.730Z,64.70
2017-12-02T20:40:48.281Z,41.17
2017-12-02T20:43:16.631Z,30.98
2017-12-02T20:45:44.176Z,32.10
2017-12-02T20:48:11.726Z,37.83
2017-12-02T20:50:49.101Z,33.87
2017-12-02T20:53:17.437Z,34.80
2017-12-02T20:55:45.035Z,37.53
2017-12-02T20:58:13.356Z,30.00
2017-12-02T21:00:40.906Z,34.00
2017-12-02T21:03:08.465Z,39.78
2017-12-02T21:05:36.029Z,41.10
2017-12-02T21:08:03.931Z,49.97
2017-12-02T21:10:31.470Z,52.47
2017-12-02T21:12:59.030Z,51.53
2017-12-02T21:15:26.576Z,49.30
2017-12-02T21:17:54.134Z,50.93
2017-12-02T21:20:21.682Z,54.78
2017-12-02T21:22:49.250Z,53.17
2017-12-02T21:25:16.847Z,50.03
2017-12-02T21:27:44.427Z,56.35
2017-12-02T21:30:22.446Z,60.03
2017-12-02T21:32:50.786Z,60.35
2017-12-02T21:35:18.337Z,53.70
2017-12-02T21:37:45.932Z,57.67
2017-12-02T21:40:13.496Z,56.88
2017-12-02T21:42:41.048Z,55.57
2017-12-02T21:45:08.595Z,55.12
2017-12-02T21:47:36.927Z,56.50
2017-12-02T21:50:07.626Z,58.22
2017-12-02T21:52:35.182Z,51.50
2017-12-02T21:55:02.772Z,56.28
2017-12-02T21:57:31.494Z,57.23
2017-12-02T21:59:59.177Z,58.53
2017-12-02T22:02:26.738Z,53.95
2017-12-02T22:04:55.290Z,60.03
2017-12-02T22:07:33.372Z,50.42
2017-12-02T22:10:00.929Z,57.30
2017-12-02T22:12:28.491Z,58.03
2017-12-02T22:14:56.041Z,55.15
2017-12-02T22:17:24.376Z,51.72
2017-12-02T22:19:51.925Z,58.17
2017-12-02T22:22:19.515Z,53.83
2017-12-02T22:24:47.098Z,57.47
2017-12-02T22:27:15.434Z,57.97
2017-12-02T22:29:43.019Z,52.65
2017-12-02T22:32:10.579Z,56.20
2017-12-02T22:34:38.163Z,55.25
2017-12-02T22:37:05.788Z,58.10
2017-12-02T22:39:33.358Z,56.53
2017-12-02T22:42:00.923Z,55.75
2017-12-02T22:44:28.517Z,55.20
2017-12-02T22:46:56.827Z,52.08
2017-12-02T22:49:24.723Z,53.92
2017-12-02T22:51:53.082Z,58.03
2017-12-02T22:54:20.647Z,54.80
2017-12-02T22:56:48.255Z,54.73
2017-12-02T22:59:16.775Z,55.83
2017-12-02T23:04:37.671Z,59.75
2017-12-02T23:07:05.269Z,61.50
2017-12-02T23:09:32.822Z,57.00
2017-12-02T23:12:00.399Z,54.43
2017-12-02T23:14:27.962Z,57.73
2017-12-02T23:16:55.522Z,57.42
2017-12-02T23:19:23.119Z,54.40
2017-12-02T23:21:51.446Z,56.45
2017-12-02T23:24:19.018Z,55.08
2017-12-02T23:26:46.575Z,52.55
2017-12-02T23:29:14.121Z,56.58
2017-12-02T23:31:41.731Z,57.65
2017-12-02T23:34:09.289Z,53.75
2017-12-02T23:36:36.835Z,50.28
2017-12-02T23:39:04.409Z,56.37
2017-12-02T23:41:31.967Z,49.35
2017-12-02T23:43:59.548Z,56.33
2017-12-02T23:46:27.980Z,52.38
2017-12-02T23:48:55.542Z,55.83
2017-12-02T23:51:23.098Z,58.15
2017-12-02T23:53:50.697Z,47.25
2017-12-02T23:56:19.050Z,43.60
2017-12-02T23:58:46.620Z,48.20
